createdAt,value
2022-09-04T00:01:55.715Z,15.00
2022-09-04T00:04:25.708Z,15.00
2022-09-04T00:07:20.612Z,15.00
2022-09-04T00:09:53.242Z,15.00
2022-09-04T00:12:29.194Z,15.00
2022-09-04T00:15:11.854Z,15.00
2022-09-04T00:17:38.622Z,14.90
2022-09-04T00:20:36.049Z,14.80
2022-09-04T00:23:14.509Z,14.80
2022-09-04T00:26:07.814Z,14.80
2022-09-04T00:28:37.540Z,14.70
2022-09-04T00:31:18.274Z,14.70
2022-09-04T00:34:01.194Z,14.70
2022-09-04T00:36:29.463Z,14.80
2022-09-04T00:39:00.536Z,14.70
2022-09-04T00:41:46.208Z,14.70
2022-09-04T00:44:50.795Z,14.70
2022-09-04T00:47:29.714Z,14.60
2022-09-04T00:50:01.061Z,14.60
2022-09-04T00:52:58.330Z,14.50
2022-09-04T00:55:50.743Z,14.50
2022-09-04T00:58:29.637Z,14.50
2022-09-04T01:00:59.270Z,14.50
2022-09-04T01:03:40.539Z,14.30
2022-09-04T01:06:16.011Z,14.30
2022-09-04T01:09:05.115Z,14.30
2022-09-04T01:12:23.000Z,14.20
2022-09-04T01:15:22.348Z,14.20
2022-09-04T01:18:10.285Z,14.20
2022-09-04T01:21:06.556Z,14.10
2022-09-04T01:23:48.408Z,14.20
2022-09-04T01:26:45.827Z,14.10
2022-09-04T01:29:39.977Z,14.00
2022-09-04T01:32:29.673Z,14.10
2022-09-04T01:35:08.966Z,14.10
2022-09-04T01:38:14.602Z,13.90
2022-09-04T01:40:58.413Z,14.00
2022-09-04T01:43:25.525Z,13.90
2022-09-04T01:46:07.072Z,13.80
2022-09-04T01:48:57.471Z,13.80
2022-09-04T01:51:37.982Z,13.90
2022-09-04T01:54:42.491Z,13.80
2022-09-04T01:57:35.656Z,13.90
2022-09-04T02:00:10.891Z,13.80
2022-09-04T02:02:47.641Z,13.80
2022-09-04T02:05:44.475Z,13.80
2022-09-04T02:08:23.968Z,13.80
2022-09-04T02:10:56.702Z,13.90
2022-09-04T02:13:44.090Z,13.80
2022-09-04T02:16:33.748Z,13.70
2022-09-04T02:19:14.066Z,13.60
2022-09-04T02:21:49.407Z,13.60
2022-09-04T02:24:19.224Z,13.60
2022-09-04T02:26:49.431Z,13.60
2022-09-04T02:29:43.938Z,13.60
2022-09-04T02:32:32.414Z,13.60
2022-09-04T02:35:07.924Z,13.50
2022-09-04T02:38:01.464Z,13.50
2022-09-04T02:40:43.256Z,13.40
2022-09-04T02:43:21.793Z,13.40
2022-09-04T02:46:07.944Z,13.40
2022-09-04T02:48:52.161Z,13.50
2022-09-04T02:51:45.613Z,13.40
2022-09-04T02:54:44.574Z,13.40
2022-09-04T02:57:39.489Z,13.50
2022-09-04T03:00:26.042Z,13.40
2022-09-04T03:03:02.995Z,13.50
2022-09-04T03:05:34.947Z,13.50
2022-09-04T03:08:30.336Z,13.40
2022-09-04T03:11:15.648Z,13.40
2022-09-04T03:13:51.924Z,13.20
2022-09-04T03:16:40.305Z,13.20
2022-09-04T03:19:12.740Z,13.20
2022-09-04T03:22:11.192Z,13.20
2022-09-04T03:25:25.746Z,13.30
2022-09-04T03:27:52.614Z,13.30
2022-09-04T03:30:19.567Z,13.20
2022-09-04T03:32:49.174Z,13.20
2022-09-04T03:35:23.549Z,13.30
2022-09-04T03:38:26.514Z,13.30
2022-09-04T03:41:04.477Z,13.30
2022-09-04T03:43:49.294Z,13.30
2022-09-04T03:46:44.179Z,13.40
2022-09-04T03:49:34.262Z,13.40
2022-09-04T03:52:18.201Z,13.40
2022-09-04T03:55:16.027Z,13.40
2022-09-04T03:57:55.280Z,13.90
2022-09-04T04:00:22.831Z,15.70
2022-09-04T04:03:01.779Z,17.90
2022-09-04T04:05:53.106Z,19.70
2022-09-04T04:08:29.008Z,20.90
2022-09-04T04:11:29.531Z,21.90
2022-09-04T04:14:23.499Z,22.50
2022-09-04T04:17:08.211Z,23.00
2022-09-04T04:19:42.502Z,23.40
2022-09-04T04:22:27.594Z,23.70
2022-09-04T04:25:02.649Z,23.90
2022-09-04T04:27:53.017Z,24.20
2022-09-04T04:30:21.216Z,24.80
2022-09-04T04:32:54.079Z,25.20
2022-09-04T04:35:29.828Z,25.20
2022-09-04T04:38:12.711Z,24.90
2022-09-04T04:41:04.051Z,24.50
2022-09-04T04:43:39.940Z,24.30
2022-09-04T04:46:25.025Z,24.80
2022-09-04T04:49:07.417Z,24.90
2022-09-04T04:52:01.978Z,25.20
2022-09-04T04:54:46.410Z,25.60
2022-09-04T04:57:31.318Z,25.70
2022-09-04T05:00:29.969Z,25.70
2022-09-04T05:03:23.390Z,25.40
2022-09-04T05:06:38.259Z,25.40
2022-09-04T05:09:40.050Z,25.30
2022-09-04T05:12:43.670Z,25.30
2022-09-04T05:16:07.935Z,25.10
2022-09-04T05:18:52.332Z,24.50
2022-09-04T05:21:34.061Z,24.70
2022-09-04T05:24:13.279Z,24.50
2022-09-04T05:27:03.566Z,24.60
2022-09-04T05:29:51.626Z,24.50
2022-09-04T05:32:25.246Z,24.50
2022-09-04T05:35:16.221Z,24.30
2022-09-04T05:38:07.938Z,24.00
2022-09-04T05:40:52.644Z,24.20
2022-09-04T05:43:19.477Z,24.50
2022-09-04T05:46:01.608Z,24.70
2022-09-04T05:48:42.534Z,24.30
2022-09-04T05:51:18.548Z,24.50
2022-09-04T05:54:03.223Z,24.50
2022-09-04T05:56:57.872Z,24.70
2022-09-04T05:59:33.546Z,25.00
2022-09-04T06:02:17.758Z,25.00
2022-09-04T06:05:03.549Z,25.40
2022-09-04T06:07:42.331Z,25.60
2022-09-04T06:10:29.705Z,25.60
2022-09-04T06:13:23.516Z,25.40
2022-09-04T06:16:08.567Z,25.30
2022-09-04T06:19:07.284Z,24.90
2022-09-04T06:22:04.638Z,24.90
2022-09-04T06:24:59.293Z,25.30
2022-09-04T06:27:38.337Z,25.30
2022-09-04T06:30:11.818Z,25.20
2022-09-04T06:33:03.604Z,24.60
2022-09-04T06:35:52.860Z,24.10
2022-09-04T06:38:46.048Z,24.20
2022-09-04T06:41:52.545Z,24.70
2022-09-04T06:44:37.284Z,24.30
2022-09-04T06:47:28.704Z,24.40
2022-09-04T06:50:06.055Z,24.80
2022-09-04T06:52:38.903Z,25.20
2022-09-04T06:55:20.566Z,25.00
2022-09-04T06:57:50.301Z,24.90
2022-09-04T07:00:20.277Z,24.60
2022-09-04T07:02:57.806Z,25.10
2022-09-04T07:05:52.214Z,25.20
2022-09-04T07:08:37.801Z,25.10
2022-09-04T07:11:23.358Z,25.40
2022-09-04T07:14:29.627Z,25.40
2022-09-04T07:17:17.488Z,25.70
2022-09-04T07:20:03.162Z,26.00
2022-09-04T07:22:58.326Z,25.50
2022-09-04T07:25:37.256Z,25.30
2022-09-04T07:28:39.289Z,25.20
2022-09-04T07:31:14.364Z,24.50
2022-09-04T07:33:58.019Z,24.30
2022-09-04T07:36:38.418Z,24.10
2022-09-04T07:39:19.406Z,23.60
2022-09-04T07:41:53.790Z,23.20
2022-09-04T07:44:41.472Z,23.10
2022-09-04T07:47:38.483Z,23.10
2022-09-04T07:50:24.898Z,23.20
2022-09-04T07:53:14.762Z,22.50
2022-09-04T07:55:47.362Z,22.50
2022-09-04T07:58:20.391Z,22.60
2022-09-04T08:00:56.304Z,23.10
2022-09-04T08:03:54.543Z,23.70
2022-09-04T08:06:31.171Z,24.10
2022-09-04T08:09:22.747Z,24.60
2022-09-04T08:12:31.337Z,24.30
2022-09-04T08:15:06.794Z,24.10
2022-09-04T08:17:43.149Z,24.10
2022-09-04T08:20:19.168Z,23.00
2022-09-04T08:23:24.549Z,23.50
2022-09-04T08:26:20.459Z,22.40
2022-09-04T08:29:16.185Z,21.60
2022-09-04T08:31:48.670Z,21.60
2022-09-04T08:34:51.646Z,21.70
2022-09-04T08:37:56.164Z,22.20
2022-09-04T08:40:57.759Z,22.80
2022-09-04T08:43:48.933Z,23.50
2022-09-04T08:46:48.322Z,24.00
2022-09-04T08:49:37.490Z,24.40
2022-09-04T08:52:30.630Z,24.30
2022-09-04T08:55:12.560Z,24.30
2022-09-04T08:57:49.438Z,23.80
2022-09-04T09:00:16.436Z,23.20
2022-09-04T09:03:04.959Z,22.20
2022-09-04T09:05:53.739Z,21.80
2022-09-04T09:08:47.919Z,22.20
2022-09-04T09:11:23.847Z,22.40
2022-09-04T09:14:13.731Z,22.50
2022-09-04T09:17:34.624Z,22.60
2022-09-04T09:20:32.046Z,22.60
2022-09-04T09:23:24.225Z,23.20
2022-09-04T09:26:23.632Z,23.50
2022-09-04T09:29:17.735Z,23.30
2022-09-04T09:32:16.543Z,22.90
2022-09-04T09:35:08.857Z,22.60
2022-09-04T09:37:38.764Z,22.10
2022-09-04T09:40:46.933Z,21.60
2022-09-04T09:43:19.672Z,21.50
2022-09-04T09:46:23.815Z,21.60
2022-09-04T09:49:30.979Z,21.30
2022-09-04T09:52:27.736Z,21.00
2022-09-04T09:55:06.751Z,21.10
2022-09-04T09:57:52.859Z,21.50
2022-09-04T10:00:25.813Z,21.60
2022-09-04T10:03:30.243Z,21.80
2022-09-04T10:06:18.771Z,21.60
2022-09-04T10:08:48.372Z,21.40
2022-09-04T10:11:44.226Z,21.50
2022-09-04T10:14:32.784Z,21.70
2022-09-04T10:17:08.807Z,21.40
2022-09-04T10:20:05.684Z,21.10
2022-09-04T10:22:45.120Z,21.40
2022-09-04T10:25:39.688Z,21.80
2022-09-04T10:28:35.354Z,22.50
2022-09-04T10:31:17.344Z,23.00
2022-09-04T10:34:19.222Z,23.10
2022-09-04T10:37:07.144Z,22.20
2022-09-04T10:40:29.744Z,21.60
2022-09-04T10:43:11.463Z,21.60
2022-09-04T10:46:06.190Z,22.30
2022-09-04T10:48:54.098Z,22.70
2022-09-04T10:51:45.733Z,23.00
2022-09-04T10:54:21.521Z,22.90
2022-09-04T10:57:18.414Z,22.50
2022-09-04T10:59:54.654Z,22.20
2022-09-04T11:02:54.472Z,22.40
2022-09-04T11:05:33.264Z,22.50
2022-09-04T11:08:21.225Z,22.90
2022-09-04T11:11:03.108Z,22.70
2022-09-04T11:13:56.695Z,22.20
2022-09-04T11:16:45.326Z,21.70
2022-09-04T11:19:21.055Z,21.30
2022-09-04T11:22:00.086Z,21.30
2022-09-04T11:25:08.668Z,21.60
2022-09-04T11:28:20.462Z,22.30
2022-09-04T11:31:04.904Z,23.00
2022-09-04T11:34:08.956Z,23.20
2022-09-04T11:37:08.119Z,23.10
2022-09-04T11:39:56.232Z,23.30
2022-09-04T11:42:47.149Z,23.30
2022-09-04T11:45:49.473Z,22.80
2022-09-04T11:48:28.457Z,22.40
2022-09-04T11:51:00.447Z,22.60
2022-09-04T11:53:36.190Z,23.00
2022-09-04T11:56:08.652Z,22.80
2022-09-04T11:58:55.681Z,22.70
2022-09-04T12:01:31.812Z,22.50
2022-09-04T12:04:26.132Z,22.70
2022-09-04T12:07:17.023Z,22.40
2022-09-04T12:10:09.126Z,21.70
2022-09-04T12:12:53.379Z,21.60
2022-09-04T12:16:00.670Z,22.10
2022-09-04T12:19:16.190Z,22.50
2022-09-04T12:22:00.381Z,22.80
2022-09-04T12:24:39.295Z,23.10
2022-09-04T12:27:27.035Z,23.10
2022-09-04T12:29:59.917Z,22.90
2022-09-04T12:33:08.406Z,22.70
2022-09-04T12:36:00.769Z,22.70
2022-09-04T12:38:50.934Z,22.70
2022-09-04T12:41:41.884Z,22.90
2022-09-04T12:44:39.407Z,23.00
2022-09-04T12:47:14.108Z,23.00
2022-09-04T12:49:58.203Z,22.60
2022-09-04T12:52:51.225Z,22.30
2022-09-04T12:55:24.390Z,22.20
2022-09-04T12:58:12.247Z,22.10
2022-09-04T13:01:08.546Z,22.20
2022-09-04T13:03:37.533Z,21.90
2022-09-04T13:06:04.424Z,21.70
2022-09-04T13:08:59.547Z,21.50
2022-09-04T13:11:35.305Z,21.70
2022-09-04T13:14:29.258Z,21.80
2022-09-04T13:16:56.016Z,21.50
2022-09-04T13:19:46.041Z,21.50
2022-09-04T13:22:53.273Z,21.50
2022-09-04T13:25:39.640Z,21.50
2022-09-04T13:28:17.262Z,21.50
2022-09-04T13:31:00.112Z,21.60
2022-09-04T13:34:13.408Z,21.60
2022-09-04T13:37:21.219Z,21.50
2022-09-04T13:40:14.096Z,21.40
2022-09-04T13:42:56.959Z,21.40
2022-09-04T13:45:28.312Z,21.40
2022-09-04T13:48:09.743Z,21.40
2022-09-04T13:50:52.281Z,21.10
2022-09-04T13:53:25.187Z,20.60
2022-09-04T13:56:26.407Z,20.70
2022-09-04T13:59:01.718Z,20.70
2022-09-04T14:01:31.043Z,21.00
2022-09-04T14:04:01.468Z,21.30
2022-09-04T14:06:31.527Z,21.30
2022-09-04T14:09:05.610Z,21.00
2022-09-04T14:12:02.028Z,20.80
2022-09-04T14:14:48.599Z,20.50
2022-09-04T14:17:27.084Z,20.30
2022-09-04T14:20:30.075Z,20.40
2022-09-04T14:23:15.584Z,20.50
2022-09-04T14:25:51.131Z,20.60
2022-09-04T14:28:26.960Z,20.60
2022-09-04T14:31:03.091Z,20.60
2022-09-04T14:34:13.727Z,20.70
2022-09-04T14:36:56.609Z,20.60
2022-09-04T14:39:57.813Z,20.60
2022-09-04T14:42:28.533Z,20.40
2022-09-04T14:45:09.821Z,20.20
2022-09-04T14:48:05.857Z,20.00
2022-09-04T14:50:45.223Z,19.80
2022-09-04T14:53:31.866Z,19.80
2022-09-04T14:56:24.866Z,19.90
2022-09-04T14:59:07.155Z,20.00
2022-09-04T15:01:45.750Z,20.10
2022-09-04T15:04:21.737Z,20.20
2022-09-04T15:07:12.205Z,20.10
2022-09-04T15:09:45.902Z,20.20
2022-09-04T15:12:26.250Z,20.30
2022-09-04T15:15:19.940Z,20.20
2022-09-04T15:17:56.556Z,20.10
2022-09-04T15:20:27.881Z,20.10
2022-09-04T15:22:57.630Z,20.00
2022-09-04T15:25:58.846Z,20.00
2022-09-04T15:28:38.409Z,20.00
2022-09-04T15:31:17.065Z,20.00
2022-09-04T15:33:47.665Z,19.90
2022-09-04T15:36:23.115Z,19.90
2022-09-04T15:38:56.239Z,19.80
2022-09-04T15:41:43.185Z,19.80
2022-09-04T15:44:23.926Z,19.80
2022-09-04T15:47:02.370Z,19.70
2022-09-04T15:49:49.598Z,19.70
2022-09-04T15:52:31.771Z,19.70
2022-09-04T15:55:22.687Z,19.50
2022-09-04T15:58:19.822Z,19.40
2022-09-04T16:01:16.689Z,19.30
2022-09-04T16:03:53.144Z,19.20
2022-09-04T16:06:49.618Z,19.00
2022-09-04T16:09:40.025Z,19.00
2022-09-04T16:12:18.730Z,18.90
2022-09-04T16:14:48.493Z,18.80
2022-09-04T16:17:28.901Z,18.70
2022-09-04T16:20:22.904Z,18.60
2022-09-04T16:22:58.532Z,18.40
2022-09-04T16:25:29.168Z,18.40
2022-09-04T16:28:06.033Z,18.40
2022-09-04T16:30:36.158Z,18.30
2022-09-04T16:33:12.947Z,18.20
2022-09-04T16:35:49.770Z,18.00
2022-09-04T16:38:29.744Z,18.00
2022-09-04T16:41:15.626Z,17.90
2022-09-04T16:44:14.531Z,17.90
2022-09-04T16:47:02.755Z,17.80
2022-09-04T16:49:41.183Z,17.80
2022-09-04T16:52:28.218Z,17.70
2022-09-04T16:55:27.096Z,17.70
2022-09-04T16:58:07.172Z,17.70
2022-09-04T17:00:49.624Z,17.60
2022-09-04T17:03:24.727Z,17.60
2022-09-04T17:06:06.140Z,17.70
2022-09-04T17:08:50.067Z,17.70
2022-09-04T17:11:41.250Z,17.70
2022-09-04T17:14:43.182Z,17.60
2022-09-04T17:17:30.831Z,17.60
2022-09-04T17:20:06.875Z,17.60
2022-09-04T17:28:58.403Z,17.60
2022-09-04T17:29:08.056Z,17.60
2022-09-04T17:29:34.463Z,17.60
2022-09-04T17:32:35.489Z,17.50
2022-09-04T17:40:43.589Z,17.50
2022-09-04T17:40:46.389Z,17.50
2022-09-04T17:41:55.812Z,17.50
2022-09-04T17:44:50.610Z,17.50
2022-09-04T17:47:34.479Z,17.50
2022-09-04T17:50:02.350Z,17.50
2022-09-04T17:52:34.104Z,17.50
2022-09-04T17:55:11.439Z,17.50
2022-09-04T17:58:04.790Z,17.50
2022-09-04T18:00:49.454Z,17.50
2022-09-04T18:03:29.741Z,17.50
2022-09-04T18:06:21.771Z,17.50
2022-09-04T18:09:03.275Z,17.50
2022-09-04T18:11:37.146Z,17.50
2022-09-04T18:14:17.318Z,17.50
2022-09-04T18:16:54.506Z,17.50
2022-09-04T18:19:56.389Z,17.50
2022-09-04T18:22:42.457Z,17.50
2022-09-04T18:25:18.327Z,17.50
2022-09-04T18:27:51.080Z,17.50
2022-09-04T18:37:12.777Z,17.40
2022-09-04T18:37:18.210Z,17.40
2022-09-04T18:37:27.098Z,17.40
2022-09-04T18:40:00.559Z,17.50
2022-09-04T18:50:25.101Z,17.50
2022-09-04T18:50:37.435Z,17.40
2022-09-04T18:50:48.952Z,17.40
2022-09-04T18:51:38.366Z,17.40
2022-09-04T18:54:20.274Z,17.40
2022-09-04T18:56:53.708Z,17.40
2022-09-04T19:00:08.116Z,17.40
2022-09-04T19:03:04.146Z,17.40
2022-09-04T19:05:44.401Z,17.40
2022-09-04T19:08:18.414Z,17.40
2022-09-04T19:10:55.069Z,17.40
2022-09-04T19:13:36.201Z,17.50
2022-09-04T19:16:13.907Z,17.50
2022-09-04T19:18:55.814Z,17.40
2022-09-04T19:21:39.877Z,17.40
2022-09-04T19:24:16.054Z,17.40
2022-09-04T19:27:27.874Z,17.40
2022-09-04T19:30:19.983Z,17.40
2022-09-04T19:32:59.786Z,17.40
2022-09-04T19:35:32.325Z,17.40
2022-09-04T19:43:36.461Z,17.40
2022-09-04T19:45:59.347Z,17.40
2022-09-04T19:46:14.571Z,17.40
2022-09-04T19:47:37.549Z,17.40
2022-09-04T19:53:21.884Z,17.40
2022-09-04T19:53:31.104Z,17.40
2022-09-04T19:56:09.060Z,17.40
2022-09-04T19:59:11.580Z,17.40
2022-09-04T20:01:48.432Z,17.40
2022-09-04T20:04:30.695Z,17.40
2022-09-04T20:07:10.200Z,17.40
2022-09-04T20:09:50.606Z,17.40
2022-09-04T20:12:23.210Z,17.40
2022-09-04T20:15:25.978Z,17.40
2022-09-04T20:18:24.553Z,17.30
2022-09-04T20:20:58.686Z,17.30
2022-09-04T20:23:35.319Z,17.30
2022-09-04T20:26:17.957Z,17.30
2022-09-04T20:28:53.873Z,17.20
2022-09-04T20:31:36.137Z,17.10
2022-09-04T20:34:27.730Z,17.30
2022-09-04T20:37:15.970Z,17.30
2022-09-04T20:39:53.904Z,17.20
2022-09-04T20:42:58.942Z,17.30
2022-09-04T20:47:05.112Z,17.50
2022-09-04T20:52:55.886Z,17.30
2022-09-04T20:52:57.773Z,17.50
2022-09-04T20:54:11.462Z,17.10
2022-09-04T21:00:36.611Z,17.00
2022-09-04T21:03:08.102Z,16.90
2022-09-04T21:03:27.867Z,16.80
2022-09-04T21:06:31.924Z,16.90
2022-09-04T21:09:01.547Z,16.90
2022-09-04T21:11:41.169Z,16.80
2022-09-04T21:14:37.888Z,16.80
2022-09-04T21:17:34.590Z,16.90
2022-09-04T21:20:29.743Z,16.90
2022-09-04T21:23:18.639Z,16.80
2022-09-04T21:26:06.758Z,16.90
2022-09-04T21:28:56.802Z,16.80
2022-09-04T21:32:28.712Z,16.80
2022-09-04T21:34:55.474Z,16.80
2022-09-04T21:37:39.881Z,16.90
2022-09-04T21:40:52.552Z,16.80
2022-09-04T21:43:36.016Z,16.80
2022-09-04T21:46:21.943Z,16.80
2022-09-04T21:48:52.350Z,16.80
2022-09-04T21:51:45.165Z,16.90
2022-09-04T21:55:29.841Z,16.80
2022-09-04T22:02:28.499Z,16.80
2022-09-04T22:02:44.249Z,16.80
2022-09-04T22:03:29.699Z,16.80
2022-09-04T22:06:14.113Z,16.80
2022-09-04T22:13:28.621Z,16.80
2022-09-04T22:13:46.326Z,16.80
2022-09-04T22:14:59.104Z,16.70
2022-09-04T22:17:34.487Z,16.70
2022-09-04T22:20:19.713Z,16.80
2022-09-04T22:22:46.479Z,16.70
2022-09-04T22:25:30.221Z,16.50
2022-09-04T22:28:12.446Z,16.40
2022-09-04T22:30:45.380Z,16.30
2022-09-04T22:33:27.580Z,16.30
2022-09-04T22:36:25.195Z,16.30
2022-09-04T22:39:00.819Z,16.30
2022-09-04T22:41:45.765Z,16.20
2022-09-04T22:44:21.407Z,16.20
2022-09-04T22:47:25.700Z,16.10
2022-09-04T22:50:49.031Z,16.10
2022-09-04T22:53:45.393Z,16.00
2022-09-04T22:56:27.831Z,16.00
2022-09-04T22:59:25.755Z,15.90
2022-09-04T23:02:13.676Z,16.00
2022-09-04T23:05:01.884Z,15.90
2022-09-04T23:13:41.886Z,15.90
2022-09-04T23:13:52.401Z,16.00
2022-09-04T23:14:06.766Z,16.00
2022-09-04T23:16:52.199Z,16.00
2022-09-04T23:26:36.127Z,16.10
2022-09-04T23:26:41.495Z,16.00
2022-09-04T23:26:53.127Z,16.00
2022-09-04T23:28:32.374Z,16.10
2022-09-04T23:31:07.084Z,16.00
2022-09-04T23:34:09.306Z,15.90
2022-09-04T23:36:44.928Z,15.90
2022-09-04T23:39:16.854Z,15.90
2022-09-04T23:42:21.694Z,15.80
2022-09-04T23:45:04.152Z,15.80
2022-09-04T23:47:49.513Z,15.90
2022-09-04T23:50:58.559Z,16.00
2022-09-04T23:53:36.040Z,15.80
2022-09-04T23:56:17.871Z,15.70
2022-09-04T23:59:28.082Z,15.70
